createdAt,value
2022-08-19T00:04:07.470Z,57.14
2022-08-19T00:06:36.486Z,56.92
2022-08-19T00:09:06.723Z,56.83
2022-08-19T00:11:35.602Z,57.07
2022-08-19T00:14:02.487Z,56.98
2022-08-19T00:16:29.322Z,56.87
2022-08-19T00:18:56.662Z,57.13
2022-08-19T00:21:25.084Z,57.45
2022-08-19T00:23:51.512Z,57.21
2022-08-19T00:26:18.126Z,57.64
2022-08-19T00:28:44.618Z,57.63
2022-08-19T00:31:11.234Z,57.49
2022-08-19T00:33:37.784Z,57.72
2022-08-19T00:36:07.370Z,57.57
2022-08-19T00:38:37.805Z,57.89
2022-08-19T00:41:06.342Z,57.74
2022-08-19T00:43:32.866Z,57.75
2022-08-19T00:45:59.357Z,57.58
2022-08-19T00:48:25.993Z,57.75
2022-08-19T00:50:54.151Z,57.88
2022-08-19T00:53:23.757Z,57.72
2022-08-19T00:55:53.551Z,57.84
2022-08-19T00:58:22.928Z,57.76
2022-08-19T01:00:49.750Z,57.96
2022-08-19T01:03:19.272Z,57.62
2022-08-19T01:05:48.193Z,57.86
2022-08-19T01:08:16.802Z,57.92
2022-08-19T01:10:47.864Z,57.67
2022-08-19T01:13:21.000Z,57.59
2022-08-19T01:15:52.426Z,57.82
2022-08-19T01:18:20.482Z,58.45
2022-08-19T01:20:47.687Z,57.82
2022-08-19T01:23:15.726Z,58.24
2022-08-19T01:25:50.902Z,57.84
2022-08-19T01:28:32.203Z,57.84
2022-08-19T01:31:01.270Z,58.04
2022-08-19T01:33:34.609Z,58.32
2022-08-19T01:36:09.603Z,58.00
2022-08-19T01:38:44.396Z,58.03
2022-08-19T01:41:12.494Z,57.94
2022-08-19T01:43:39.093Z,57.95
2022-08-19T01:46:25.792Z,58.61
2022-08-19T01:48:52.247Z,58.47
2022-08-19T01:51:18.767Z,58.66
2022-08-19T01:53:49.221Z,58.33
2022-08-19T01:56:15.666Z,58.83
2022-08-19T01:58:48.651Z,58.28
2022-08-19T02:01:15.232Z,58.58
2022-08-19T02:03:41.733Z,58.32
2022-08-19T02:06:08.441Z,58.40
2022-08-19T02:08:38.463Z,58.46
2022-08-19T02:11:06.929Z,58.51
2022-08-19T02:13:34.569Z,58.39
2022-08-19T02:16:01.078Z,58.80
2022-08-19T02:18:30.825Z,58.48
2022-08-19T02:20:57.433Z,58.32
2022-08-19T02:23:24.010Z,58.38
2022-08-19T02:25:52.275Z,58.34
2022-08-19T02:28:19.254Z,58.71
2022-08-19T02:30:47.425Z,59.11
2022-08-19T02:33:14.013Z,58.81
2022-08-19T02:35:47.789Z,58.84
2022-08-19T02:38:26.863Z,58.61
2022-08-19T02:40:57.342Z,58.96
2022-08-19T02:43:27.319Z,59.30
2022-08-19T02:45:55.138Z,59.70
2022-08-19T02:48:23.586Z,59.80
2022-08-19T02:50:56.390Z,59.97
2022-08-19T02:53:25.402Z,59.85
2022-08-19T02:55:52.404Z,60.22
2022-08-19T02:58:20.720Z,60.08
2022-08-19T03:00:50.604Z,59.81
2022-08-19T03:03:17.819Z,60.09
2022-08-19T03:05:48.187Z,60.14
2022-08-19T03:08:22.497Z,60.13
2022-08-19T03:10:49.160Z,59.93
2022-08-19T03:13:18.362Z,59.81
2022-08-19T03:15:47.866Z,59.79
2022-08-19T03:18:14.805Z,60.08
2022-08-19T03:20:59.948Z,59.89
2022-08-19T03:23:26.706Z,60.03
2022-08-19T03:25:58.398Z,60.22
2022-08-19T03:28:42.715Z,60.13
2022-08-19T03:31:45.589Z,60.06
2022-08-19T03:34:05.427Z,59.94
2022-08-19T03:36:34.659Z,60.11
2022-08-19T03:39:02.318Z,60.25
2022-08-19T03:41:44.316Z,60.09
2022-08-19T03:44:16.777Z,60.15
2022-08-19T03:46:46.146Z,60.10
2022-08-19T03:49:14.361Z,60.10
2022-08-19T03:51:43.192Z,59.96
2022-08-19T03:54:12.631Z,59.99
2022-08-19T03:56:40.708Z,60.12
2022-08-19T03:59:09.772Z,59.87
2022-08-19T04:01:36.403Z,60.16
2022-08-19T04:04:04.746Z,60.31
2022-08-19T04:06:34.925Z,59.91
2022-08-19T04:09:04.542Z,60.15
2022-08-19T04:11:43.706Z,60.15
2022-08-19T04:14:13.508Z,60.34
2022-08-19T04:16:40.000Z,60.61
2022-08-19T04:19:07.707Z,60.95
2022-08-19T04:21:35.047Z,60.95
2022-08-19T04:24:02.049Z,61.00
2022-08-19T04:26:35.603Z,60.69
2022-08-19T04:29:12.373Z,60.54
2022-08-19T04:31:41.054Z,60.55
2022-08-19T04:34:09.379Z,60.66
2022-08-19T04:36:38.023Z,60.63
2022-08-19T04:39:08.389Z,60.75
2022-08-19T04:41:54.425Z,61.19
2022-08-19T04:44:22.321Z,60.89
2022-08-19T04:46:51.957Z,60.69
2022-08-19T04:49:22.727Z,60.39
2022-08-19T04:51:50.928Z,60.97
2022-08-19T04:54:37.247Z,60.96
2022-08-19T04:57:07.541Z,60.86
2022-08-19T04:59:34.572Z,60.93
2022-08-19T05:02:01.224Z,60.90
2022-08-19T05:04:29.719Z,61.06
2022-08-19T05:06:59.457Z,61.23
2022-08-19T05:09:56.579Z,60.95
2022-08-19T05:12:16.580Z,61.00
2022-08-19T05:14:43.232Z,60.78
2022-08-19T05:17:26.557Z,60.87
2022-08-19T05:20:12.834Z,60.81
2022-08-19T05:22:39.737Z,60.72
2022-08-19T05:25:13.004Z,60.54
2022-08-19T05:27:40.269Z,60.83
2022-08-19T05:30:07.552Z,60.85
2022-08-19T05:32:34.086Z,61.00
2022-08-19T05:35:00.599Z,60.99
2022-08-19T05:37:28.414Z,61.11
2022-08-19T05:39:55.737Z,61.20
2022-08-19T05:42:23.914Z,61.06
2022-08-19T05:44:51.148Z,61.18
2022-08-19T05:47:19.777Z,61.42
2022-08-19T05:49:46.401Z,61.36
2022-08-19T05:52:16.483Z,61.45
2022-08-19T05:54:51.105Z,61.69
2022-08-19T05:57:21.287Z,61.61
2022-08-19T05:59:49.431Z,61.73
2022-08-19T06:02:20.331Z,61.51
2022-08-19T06:04:46.858Z,61.85
2022-08-19T06:07:13.596Z,61.67
2022-08-19T06:09:41.420Z,61.74
2022-08-19T06:12:10.270Z,61.71
2022-08-19T06:14:41.712Z,61.93
2022-08-19T06:17:09.243Z,61.76
2022-08-19T06:19:40.645Z,61.93
2022-08-19T06:22:08.614Z,61.81
2022-08-19T06:24:36.192Z,61.91
2022-08-19T06:27:04.129Z,61.22
2022-08-19T06:29:31.243Z,61.84
2022-08-19T06:32:00.312Z,61.65
2022-08-19T06:34:29.064Z,61.55
2022-08-19T06:36:57.182Z,61.72
2022-08-19T06:39:29.556Z,61.54
2022-08-19T06:42:11.167Z,61.57
2022-08-19T06:44:42.850Z,61.51
2022-08-19T06:47:14.919Z,61.69
2022-08-19T06:49:50.020Z,61.61
2022-08-19T06:52:17.733Z,61.31
2022-08-19T06:54:55.875Z,61.42
2022-08-19T06:57:24.581Z,61.30
2022-08-19T06:59:51.208Z,61.28
2022-08-19T07:04:44.518Z,60.79
2022-08-19T07:07:21.283Z,60.63
2022-08-19T07:09:51.648Z,60.47
2022-08-19T07:12:30.200Z,60.46
2022-08-19T07:15:00.247Z,59.87
2022-08-19T07:17:28.886Z,59.42
2022-08-19T07:19:56.222Z,59.33
2022-08-19T07:22:26.256Z,59.09
2022-08-19T07:24:53.589Z,58.94
2022-08-19T07:27:24.298Z,58.80
2022-08-19T07:29:55.854Z,58.62
2022-08-19T07:32:26.910Z,58.26
2022-08-19T07:34:57.025Z,58.01
2022-08-19T07:37:32.542Z,58.04
2022-08-19T07:39:59.917Z,57.94
2022-08-19T07:42:26.699Z,57.17
2022-08-19T07:44:53.131Z,57.37
2022-08-19T07:47:50.228Z,57.07
2022-08-19T07:50:10.214Z,56.44
2022-08-19T07:52:39.510Z,55.95
2022-08-19T07:55:08.056Z,56.11
2022-08-19T07:57:54.610Z,56.12
2022-08-19T08:00:23.779Z,55.70
2022-08-19T08:02:51.371Z,55.25
2022-08-19T08:05:38.022Z,55.21
2022-08-19T08:08:44.530Z,55.40
2022-08-19T08:11:19.867Z,55.03
2022-08-19T08:13:46.854Z,54.40
2022-08-19T08:16:31.038Z,54.60
2022-08-19T08:18:58.719Z,54.30
2022-08-19T08:21:25.173Z,54.10
2022-08-19T08:23:55.673Z,53.78
2022-08-19T08:26:23.334Z,53.06
2022-08-19T08:28:50.201Z,52.42
2022-08-19T08:31:16.774Z,51.96
2022-08-19T08:33:43.322Z,52.28
2022-08-19T08:36:10.441Z,51.50
2022-08-19T08:38:41.799Z,51.63
2022-08-19T08:41:35.906Z,51.87
2022-08-19T08:44:05.554Z,51.63
2022-08-19T08:46:39.610Z,51.30
2022-08-19T08:49:43.804Z,51.11
2022-08-19T08:52:32.065Z,51.13
2022-08-19T08:55:04.202Z,50.52
2022-08-19T08:57:54.468Z,50.03
2022-08-19T09:00:26.124Z,49.40
2022-08-19T09:02:52.555Z,48.79
2022-08-19T09:05:26.083Z,48.66
2022-08-19T09:08:09.767Z,48.88
2022-08-19T09:10:55.491Z,49.00
2022-08-19T09:13:23.193Z,48.64
2022-08-19T09:15:57.670Z,48.12
2022-08-19T09:18:24.646Z,47.51
2022-08-19T09:20:51.095Z,47.46
2022-08-19T09:23:17.642Z,47.60
2022-08-19T09:25:44.142Z,47.17
2022-08-19T09:28:22.703Z,47.20
2022-08-19T09:30:53.620Z,47.21
2022-08-19T09:33:29.104Z,47.61
2022-08-19T09:36:31.287Z,47.07
2022-08-19T09:39:20.891Z,46.78
2022-08-19T09:42:16.170Z,46.59
2022-08-19T09:45:10.487Z,45.89
2022-08-19T09:47:40.742Z,45.36
2022-08-19T09:50:09.684Z,44.60
2022-08-19T09:52:38.392Z,44.06
2022-08-19T09:55:10.310Z,43.54
2022-08-19T09:57:37.166Z,43.23
2022-08-19T10:00:06.576Z,43.12
2022-08-19T10:02:33.438Z,43.00
2022-08-19T10:05:26.878Z,42.78
2022-08-19T10:07:53.863Z,42.87
2022-08-19T10:10:24.150Z,42.37
2022-08-19T10:12:51.403Z,41.85
2022-08-19T10:15:29.060Z,41.33
2022-08-19T10:17:56.319Z,41.36
2022-08-19T10:20:23.719Z,41.09
2022-08-19T10:22:51.893Z,40.21
2022-08-19T10:25:19.953Z,39.51
2022-08-19T10:27:51.341Z,38.25
2022-08-19T10:30:18.265Z,38.92
2022-08-19T10:32:47.187Z,38.69
2022-08-19T10:35:16.069Z,38.85
2022-08-19T10:37:57.615Z,38.42
2022-08-19T10:40:29.494Z,38.41
2022-08-19T10:42:57.058Z,37.52
2022-08-19T10:45:26.929Z,37.76
2022-08-19T10:47:54.921Z,37.84
2022-08-19T10:50:40.674Z,37.51
2022-08-19T10:53:12.413Z,37.59
2022-08-19T10:55:57.690Z,37.36
2022-08-19T10:58:24.651Z,37.28
2022-08-19T11:00:58.784Z,37.17
2022-08-19T11:03:26.708Z,36.97
2022-08-19T11:06:08.291Z,37.94
2022-08-19T11:08:38.460Z,37.11
2022-08-19T11:11:06.735Z,37.05
2022-08-19T11:13:38.277Z,37.23
2022-08-19T11:16:11.996Z,37.04
2022-08-19T11:18:41.232Z,36.18
2022-08-19T11:21:13.475Z,36.30
2022-08-19T11:23:40.645Z,35.98
2022-08-19T11:26:07.556Z,36.17
2022-08-19T11:28:34.244Z,35.42
2022-08-19T11:31:00.698Z,35.03
2022-08-19T11:33:27.422Z,35.01
2022-08-19T11:35:55.115Z,34.51
2022-08-19T11:38:21.559Z,34.39
2022-08-19T11:40:55.913Z,34.61
2022-08-19T11:43:22.608Z,34.67
2022-08-19T11:45:49.701Z,33.95
2022-08-19T11:48:16.193Z,34.11
2022-08-19T11:50:43.183Z,34.30
2022-08-19T11:53:10.886Z,34.31
2022-08-19T11:55:44.090Z,34.29
2022-08-19T11:58:18.624Z,33.96
2022-08-19T12:00:46.241Z,34.18
2022-08-19T12:03:15.882Z,33.88
2022-08-19T12:05:42.956Z,34.47
2022-08-19T12:08:09.754Z,34.17
2022-08-19T12:10:36.551Z,34.08
2022-08-19T12:13:03.042Z,34.27
2022-08-19T12:15:36.842Z,34.26
2022-08-19T12:18:05.099Z,34.37
2022-08-19T12:20:31.982Z,34.50
2022-08-19T12:23:02.075Z,33.46
2022-08-19T12:25:28.584Z,33.59
2022-08-19T12:27:57.453Z,33.35
2022-08-19T12:30:24.491Z,33.40
2022-08-19T12:32:52.197Z,32.96
2022-08-19T12:35:22.059Z,32.44
2022-08-19T12:37:57.043Z,32.47
2022-08-19T12:40:26.323Z,32.66
2022-08-19T12:42:53.717Z,31.89
2022-08-19T12:45:20.133Z,31.80
2022-08-19T12:47:47.764Z,31.41
2022-08-19T12:50:14.388Z,31.33
2022-08-19T12:52:43.298Z,31.35
2022-08-19T12:55:11.549Z,31.63
2022-08-19T12:57:38.578Z,31.35
2022-08-19T13:00:13.510Z,31.51
2022-08-19T13:02:46.644Z,31.91
2022-08-19T13:05:20.974Z,32.10
2022-08-19T13:07:47.979Z,31.59
2022-08-19T13:10:17.315Z,31.90
2022-08-19T13:12:45.814Z,31.85
2022-08-19T13:15:13.215Z,31.86
2022-08-19T13:17:42.216Z,32.09
2022-08-19T13:20:10.088Z,32.08
2022-08-19T13:22:37.085Z,31.77
2022-08-19T13:25:06.270Z,31.74
2022-08-19T13:27:32.910Z,31.62
2022-08-19T13:30:18.509Z,31.42
2022-08-19T13:33:03.487Z,31.12
2022-08-19T13:35:29.937Z,31.50
2022-08-19T13:37:56.474Z,31.50
2022-08-19T13:40:25.031Z,31.01
2022-08-19T13:42:53.952Z,31.18
2022-08-19T13:45:23.176Z,31.24
2022-08-19T13:47:57.003Z,31.16
2022-08-19T13:50:28.977Z,31.25
2022-08-19T13:52:56.920Z,30.33
2022-08-19T13:55:25.488Z,30.47
2022-08-19T13:57:57.961Z,30.31
2022-08-19T14:00:27.464Z,29.71
2022-08-19T14:02:56.761Z,29.65
2022-08-19T14:05:24.451Z,29.20
2022-08-19T14:07:51.420Z,29.56
2022-08-19T14:10:19.767Z,29.33
2022-08-19T14:12:47.218Z,29.16
2022-08-19T14:15:14.929Z,28.76
2022-08-19T14:17:43.707Z,29.21
2022-08-19T14:20:17.526Z,28.64
2022-08-19T14:22:46.192Z,28.54
2022-08-19T14:25:18.732Z,28.79
2022-08-19T14:27:46.003Z,28.80
2022-08-19T14:30:16.981Z,28.74
2022-08-19T14:32:46.484Z,29.24
2022-08-19T14:35:15.748Z,29.14
2022-08-19T14:37:46.185Z,29.16
2022-08-19T14:40:15.462Z,29.21
2022-08-19T14:42:42.792Z,29.36
2022-08-19T14:45:11.343Z,29.65
2022-08-19T14:47:39.852Z,29.76
2022-08-19T14:50:10.603Z,29.50
2022-08-19T14:52:48.967Z,29.57
2022-08-19T14:55:18.984Z,30.16
2022-08-19T14:57:46.209Z,29.95
2022-08-19T15:00:14.351Z,29.71
2022-08-19T15:02:42.354Z,29.67
2022-08-19T15:05:09.459Z,29.80
2022-08-19T15:07:36.132Z,29.40
2022-08-19T15:10:03.039Z,29.54
2022-08-19T15:12:29.515Z,30.10
2022-08-19T15:14:56.938Z,29.94
2022-08-19T15:17:35.333Z,30.04
2022-08-19T15:20:13.626Z,29.85
2022-08-19T15:22:40.941Z,29.87
2022-08-19T15:25:09.408Z,29.94
2022-08-19T15:27:39.771Z,30.09
2022-08-19T15:30:09.269Z,30.67
2022-08-19T15:32:36.838Z,30.57
2022-08-19T15:35:04.743Z,30.82
2022-08-19T15:37:31.279Z,31.28
2022-08-19T15:39:58.251Z,31.11
2022-08-19T15:42:30.007Z,31.39
2022-08-19T15:44:58.264Z,31.70
2022-08-19T15:47:34.451Z,31.45
2022-08-19T15:50:10.839Z,31.59
2022-08-19T15:52:48.442Z,32.65
2022-08-19T15:55:27.678Z,32.16
2022-08-19T15:58:28.892Z,32.35
2022-08-19T16:01:20.865Z,32.48
2022-08-19T16:04:14.866Z,32.59
2022-08-19T16:06:44.186Z,32.72
2022-08-19T16:09:10.780Z,32.73
2022-08-19T16:11:39.679Z,32.54
2022-08-19T16:14:09.464Z,33.23
2022-08-19T16:16:37.967Z,33.20
2022-08-19T16:19:10.226Z,33.02
2022-08-19T16:21:41.691Z,32.87
2022-08-19T16:24:13.102Z,32.98
2022-08-19T16:26:40.878Z,33.26
2022-08-19T16:29:13.004Z,32.79
2022-08-19T16:31:42.191Z,33.16
2022-08-19T16:34:09.143Z,33.06
2022-08-19T16:36:35.906Z,33.36
2022-08-19T16:39:03.604Z,32.93
2022-08-19T16:41:30.101Z,33.15
2022-08-19T16:43:56.643Z,33.12
2022-08-19T16:46:27.095Z,32.97
2022-08-19T16:48:54.224Z,33.08
2022-08-19T16:51:22.652Z,33.10
2022-08-19T16:53:51.964Z,33.54
2022-08-19T16:56:19.443Z,33.50
2022-08-19T16:58:45.924Z,33.35
2022-08-19T17:01:12.390Z,33.62
2022-08-19T17:03:39.908Z,33.62
2022-08-19T17:06:21.036Z,33.71
2022-08-19T17:08:54.525Z,33.66
2022-08-19T17:11:23.166Z,34.26
2022-08-19T17:13:50.969Z,33.98
2022-08-19T17:16:19.936Z,34.11
2022-08-19T17:18:46.483Z,34.41
2022-08-19T17:21:13.270Z,34.40
2022-08-19T17:23:42.904Z,34.79
2022-08-19T17:26:17.214Z,34.90
2022-08-19T17:28:49.016Z,34.99
2022-08-19T17:31:15.854Z,34.98
2022-08-19T17:33:42.449Z,34.64
2022-08-19T17:36:18.696Z,34.79
2022-08-19T17:38:45.727Z,35.17
2022-08-19T17:41:12.159Z,35.15
2022-08-19T17:43:42.817Z,35.32
2022-08-19T17:46:11.173Z,35.53
2022-08-19T17:48:38.907Z,35.42
2022-08-19T17:51:21.889Z,35.55
2022-08-19T17:53:50.751Z,35.54
2022-08-19T17:56:17.805Z,35.63
2022-08-19T17:58:45.083Z,35.73
2022-08-19T18:01:21.277Z,35.54
2022-08-19T18:03:51.103Z,35.40
2022-08-19T18:06:17.525Z,36.15
2022-08-19T18:08:49.061Z,36.02
2022-08-19T18:11:16.805Z,35.85
2022-08-19T18:13:45.953Z,36.17
2022-08-19T18:16:13.444Z,36.38
2022-08-19T18:18:41.853Z,36.73
2022-08-19T18:21:08.515Z,36.60
2022-08-19T18:23:44.500Z,36.46
2022-08-19T18:26:12.675Z,36.83
2022-08-19T18:28:49.447Z,36.97
2022-08-19T18:31:17.166Z,36.66
2022-08-19T18:33:44.857Z,36.88
2022-08-19T18:36:11.990Z,36.96
2022-08-19T18:38:56.953Z,36.89
2022-08-19T18:41:42.036Z,37.07
2022-08-19T18:44:28.367Z,37.13
2022-08-19T18:47:13.624Z,37.33
2022-08-19T18:49:40.583Z,37.41
2022-08-19T18:52:07.471Z,37.21
2022-08-19T18:54:34.397Z,37.41
2022-08-19T18:57:01.356Z,37.48
2022-08-19T18:59:30.264Z,37.94
2022-08-19T19:01:59.128Z,37.98
2022-08-19T19:04:29.711Z,38.09
2022-08-19T19:06:56.278Z,38.08
2022-08-19T19:09:24.996Z,38.32
2022-08-19T19:11:56.386Z,38.44
2022-08-19T19:14:48.047Z,38.48
2022-08-19T19:17:15.089Z,38.87
2022-08-19T19:19:42.937Z,39.20
2022-08-19T19:22:13.882Z,39.42
2022-08-19T19:24:45.253Z,39.97
2022-08-19T19:27:14.145Z,40.49
2022-08-19T19:29:42.219Z,40.85
2022-08-19T19:32:19.688Z,40.84
2022-08-19T19:34:46.283Z,41.54
2022-08-19T19:37:12.863Z,41.91
2022-08-19T19:39:46.158Z,42.36
2022-08-19T19:42:20.570Z,42.79
2022-08-19T19:44:49.247Z,43.37
2022-08-19T19:47:17.457Z,43.92
2022-08-19T19:50:10.690Z,44.40
2022-08-19T19:52:31.774Z,44.22
2022-08-19T19:54:58.231Z,44.66
2022-08-19T19:57:26.618Z,45.06
2022-08-19T19:59:54.206Z,45.10
2022-08-19T20:02:21.912Z,45.40
2022-08-19T20:04:48.878Z,45.60
2022-08-19T20:07:15.400Z,45.94
2022-08-19T20:09:58.669Z,46.05
2022-08-19T20:12:25.585Z,45.97
2022-08-19T20:14:52.108Z,45.91
2022-08-19T20:17:20.544Z,45.96
2022-08-19T20:19:47.711Z,46.06
2022-08-19T20:22:14.220Z,45.68
2022-08-19T20:24:42.375Z,46.21
2022-08-19T20:27:09.185Z,46.08
2022-08-19T20:29:41.562Z,46.39
2022-08-19T20:32:11.080Z,46.27
2022-08-19T20:34:38.398Z,46.62
2022-08-19T20:37:05.854Z,46.46
2022-08-19T20:39:32.344Z,46.34
2022-08-19T20:41:58.900Z,46.41
2022-08-19T20:44:25.583Z,46.35
2022-08-19T20:46:54.728Z,46.74
2022-08-19T20:49:23.080Z,46.83
2022-08-19T20:51:54.838Z,47.09
2022-08-19T20:54:21.615Z,46.82
2022-08-19T20:56:48.081Z,47.04
2022-08-19T20:59:14.756Z,47.04
2022-08-19T21:01:41.187Z,47.07
2022-08-19T21:04:07.674Z,46.93
2022-08-19T21:06:34.251Z,46.79
2022-08-19T21:09:00.705Z,46.82
2022-08-19T21:11:27.177Z,47.17
2022-08-19T21:13:53.742Z,47.38
2022-08-19T21:16:20.370Z,47.07
2022-08-19T21:18:46.893Z,47.23
2022-08-19T21:21:13.351Z,47.22
2022-08-19T21:23:40.367Z,47.22
2022-08-19T21:26:08.361Z,47.39
2022-08-19T21:28:36.337Z,47.43
2022-08-19T21:31:05.510Z,47.08
2022-08-19T21:33:32.897Z,47.24
2022-08-19T21:36:00.838Z,47.45
2022-08-19T21:38:27.558Z,47.54
2022-08-19T21:40:54.519Z,47.16
2022-08-19T21:43:21.786Z,47.42
2022-08-19T21:45:48.543Z,47.30
2022-08-19T21:48:15.405Z,47.26
2022-08-19T21:50:43.544Z,47.80
2022-08-19T21:53:17.822Z,47.27
2022-08-19T21:55:44.525Z,47.50
2022-08-19T21:58:11.750Z,47.83
2022-08-19T22:00:39.658Z,47.84
2022-08-19T22:03:06.443Z,47.89
2022-08-19T22:05:33.858Z,48.02
2022-08-19T22:08:01.310Z,48.38
2022-08-19T22:10:30.610Z,48.27
2022-08-19T22:12:58.566Z,48.09
2022-08-19T22:15:29.679Z,48.32
2022-08-19T22:17:58.694Z,48.81
2022-08-19T22:20:27.916Z,48.54
2022-08-19T22:22:58.301Z,48.66
2022-08-19T22:25:45.556Z,48.45
2022-08-19T22:28:14.753Z,48.22
2022-08-19T22:30:47.145Z,48.84
2022-08-19T22:33:19.430Z,48.59
2022-08-19T22:35:47.393Z,48.87
2022-08-19T22:38:14.770Z,48.41
2022-08-19T22:40:46.026Z,48.77
2022-08-19T22:43:20.589Z,48.71
2022-08-19T22:45:48.841Z,48.44
2022-08-19T22:48:17.455Z,48.89
2022-08-19T22:51:05.830Z,48.49
2022-08-19T22:53:37.247Z,48.57
2022-08-19T22:56:06.372Z,48.75
2022-08-19T22:58:33.044Z,49.00
2022-08-19T23:00:59.758Z,48.83
2022-08-19T23:03:26.639Z,49.25
2022-08-19T23:05:53.474Z,48.92
2022-08-19T23:08:19.985Z,49.18
2022-08-19T23:10:48.548Z,49.14
2022-08-19T23:13:17.147Z,49.39
2022-08-19T23:15:46.199Z,49.31
2022-08-19T23:18:13.761Z,49.44
2022-08-19T23:20:42.300Z,49.08
2022-08-19T23:23:12.236Z,49.62
2022-08-19T23:25:40.167Z,49.45
2022-08-19T23:28:25.816Z,49.73
2022-08-19T23:30:53.279Z,49.37
2022-08-19T23:33:24.560Z,49.50
2022-08-19T23:35:54.012Z,49.70
2022-08-19T23:38:23.319Z,49.70
2022-08-19T23:40:55.858Z,49.40
2022-08-19T23:43:24.611Z,49.86
2022-08-19T23:45:52.123Z,49.97
2022-08-19T23:48:18.811Z,50.37
2022-08-19T23:50:46.060Z,50.07
2022-08-19T23:53:13.239Z,50.17
2022-08-19T23:55:43.960Z,50.48
2022-08-19T23:58:11.552Z,50.36
